Aviation Digital Data Service (ADDS)

Output produced by METARs form (1729 UTC 02 September 2014)
found at http://www.aviationweather.gov/adds/metars/
 
KSEG 021653Z AUTO 21005KT 10SM BKN037 BKN045 29/21 A2992 RMK AO2 SLP128 T02890211
KSEG 021553Z AUTO VRB05KT 10SM FEW042 SCT049 28/22 A2995 RMK AO2 SLP139 T02780217
KSEG 021453Z AUTO VRB05KT 10SM CLR 28/22 A2997 RMK AO2 SLP144 T02830222 52002
KSEG 021353Z AUTO VRB03KT 10SM BKN039 BKN048 26/22 A2997 RMK AO2 SLP143 T02610222
KSEG 021253Z AUTO 00000KT 8SM FEW029 SCT034 OVC044 24/22 A2996 RMK AO2 SLP142 T02390217
KSEG 021153Z AUTO 00000KT 5SM BR CLR 22/21 A2996 RMK AO2 SLP141 70002 T02220211 10222 20189 53013
KSEG 021120Z AUTO 00000KT 3SM BR FEW100 20/19 A2996 RMK AO2 T02000194
KSEG 021100Z AUTO 00000KT 2 1/2SM BR FEW031 19/19 A2996 RMK AO2 T01940189
KSEG 021053Z AUTO 00000KT 3SM BR SCT031 19/19 A2995 RMK AO2 SLP137 T01940189
KSEG 021022Z AUTO 00000KT 4SM BR FEW002 OVC031 19/19 A2994 RMK AO2 T01940189
KSEG 021015Z AUTO 00000KT 2 1/2SM BR SCT002 OVC031 19/19 A2993 RMK AO2 T01940189
KSEG 021010Z AUTO 00000KT 1SM BR SCT002 BKN031 19/18 A2993 RMK AO2 T01940183
KSEG 020953Z AUTO 00000KT 3/4SM BR VV003 19/18 A2992 RMK AO2 SLP129 T01890183
KSEG 020942Z AUTO 00000KT 1/2SM FG VV003 19/18 A2992 RMK AO2 T01890183
KSEG 020933Z AUTO 00000KT 1SM BR VV002 19/18 A2992 RMK AO2 T01890183
KSEG 020929Z AUTO 00000KT 2SM BR OVC002 19/18 A2992 RMK AO2 VIS 1V4 T01890183
KSEG 020911Z AUTO 00000KT 1 1/2SM BR BKN002 19/18 A2992 RMK AO2 T01940183
KSEG 020905Z AUTO 00000KT 2SM BR FEW002 19/18 A2992 RMK AO2 T01940183
KSEG 020858Z AUTO 00000KT 1 3/4SM BR CLR 19/18 A2992 RMK AO2 T01940183
KSEG 020853Z AUTO 00000KT 3SM BR CLR 19/18 A2992 RMK AO2 SLP129 T01940183 58002
KSEG 020834Z AUTO 00000KT 3SM BR CLR 19/19 A2992 RMK AO2 T01940189
KSEG 020824Z AUTO 00000KT 2 1/2SM BR CLR 21/19 A2993 RMK AO2 T02110189
KSEG 020816Z AUTO 00000KT 1 1/4SM BR CLR 19/19 A2993 RMK AO2 T01940189
KSEG 020806Z AUTO 00000KT 3/4SM BR CLR 19/19 A2993 RMK AO2 VIS 1/2V1 3/4 T01940189
KSEG 020759Z AUTO 00000KT 1 3/4SM BR CLR 20/19 A2993 RMK AO2 T02000189
KSEG 020753Z AUTO 00000KT 3SM BR CLR 20/19 A2993 RMK AO2 SLP132 T02000189
KSEG 020659Z AUTO 21003KT 3SM BR CLR 20/19 A2993 RMK AO2 T02000194
KSEG 020653Z AUTO 00000KT 1 3/4SM BR CLR 20/19 A2993 RMK AO2 VIS 1V4 SLP131 T02000189
KSEG 020644Z AUTO 00000KT 1SM BR CLR 20/19 A2993 RMK AO2 T02000189
KSEG 020635Z AUTO 00000KT 1 3/4SM BR CLR 20/19 A2993 RMK AO2 VIS 3/4V5 T02000194
KSEG 020624Z AUTO 00000KT 4SM BR CLR 21/19 A2993 RMK AO2 T02060194
KSEG 020614Z AUTO 00000KT 2 1/2SM BR CLR 21/19 A2993 RMK AO2 VIS 1 1/4V4 T02060194
KSEG 020553Z AUTO 00000KT 4SM BR CLR 21/20 A2993 RMK AO2 SLP132 60002 T02110200 10233 20206 58008
KSEG 020453Z AUTO 00000KT 5SM BR CLR 22/21 A2994 RMK AO2 SLP135 T02170206 403000194
KSEG 020353Z AUTO 00000KT 3SM BR FEW095 21/21 A2996 RMK AO2 SLP141 T02110206
KSEG 020343Z AUTO 00000KT 3SM BR FEW002 21/20 A2996 RMK AO2 T02110200
KSEG 020320Z AUTO 00000KT 1 3/4SM BR FEW002 22/21 A2996 RMK AO2 VIS 1/2V5 T02170206
KSEG 020253Z AUTO 00000KT 4SM BR FEW090 22/21 A2996 RMK AO2 RAB0157E08 SLP140 P0002 60002 T02220211 50006
KSEG 020153Z AUTO 30003KT 8SM FEW065 BKN090 BKN120 23/22 A2996 RMK AO2 SLP143 T02280217
KSEG 020053Z AUTO 00000KT 8SM FEW120 23/22 A2995 RMK AO2 SLP136 T02330217
KSEG 012353Z AUTO 00000KT 8SM FEW120 23/22 A2994 RMK AO2 SLP134 T02330222 10300 20233 55002
KSEG 012253Z AUTO 18003KT 9SM FEW070 26/23 A2993 RMK AO2 SLP132 T02560233
KSEG 012153Z AUTO VRB03KT 10SM FEW038 SCT048 SCT055 29/22 A2993 RMK AO2 SLP132 T02890217
KSEG 012053Z AUTO 00000KT 10SM BKN070 OVC080 29/22 A2994 RMK AO2 SLP136 T02890217 58013
KSEG 011953Z AUTO 18006KT 10SM FEW050 SCT065 BKN100 29/22 A2996 RMK AO2 SLP141 T02890222
KSEG 011853Z AUTO VRB05KT 10SM SCT034 OVC050 29/22 A2997 RMK AO2 SLP145 T02890217
KSEG 011753Z AUTO 18008KT 10SM BKN032 BKN045 BKN050 29/22 A2998 RMK AO2 SLP149 T02890222 10294 20217 58013
KSEG 011653Z AUTO VRB03KT 10SM FEW026 BKN043 BKN050 28/21 A3000 RMK AO2 SLP154 T02780211
KSEG 011553Z AUTO 15003KT 10SM SCT021 SCT055 27/22 A3001 RMK AO2 SLP159 T02670217
KSEG 011540Z AUTO 00000KT 10SM BKN021 BKN038 OVC055 27/22 A3001 RMK AO2 T02670217
KSEG 011453Z AUTO VRB04KT 10SM BKN045 OVC055 27/22 A3002 RMK AO2 SLP162 T02670217 58002
KSEG 011353Z AUTO 00000KT 10SM BKN042 OVC055 24/21 A3003 RMK AO2 SLP164 T02440211
KSEG 011253Z AUTO 00000KT 8SM OVC040 23/21 A3002 RMK AO2 SLP163 T02330211
KSEG 011153Z AUTO 00000KT 4SM BR SCT040 OVC060 22/21 A3003 RMK AO2 SLP164 70004 T02170206 10217 20200 50005
KSEG 011053Z AUTO 00000KT 4SM BR OVC055 21/20 A3003 RMK AO2 SLP167 T02060200
KSEG 010953Z AUTO 00000KT 4SM BR SCT050 SCT065 OVC080 21/19 A3003 RMK AO2 SLP164 T02060194
KSEG 010853Z AUTO 00000KT 4SM BR BKN039 OVC048 21/20 A3001 RMK AO2 SLP159 T02060200 50001
KSEG 010753Z AUTO 00000KT 5SM BR BKN038 OVC048 21/20 A3002 RMK AO2 SLP161 T02060200
KSEG 010653Z AUTO 00000KT 4SM BR OVC060 20/19 A3001 RMK AO2 SLP159 T02000194
KSEG 010553Z AUTO 00000KT 4SM BR BKN060 20/19 A3001 RMK AO2 SLP159 T02000189 10233 20194 58003